sensor_id;sensor_type;location;lat;lon;timestamp;pressure;altitude;pressure_sealevel;temperature;humidity
32083;BME280;18597;48.328;7.932;2023-02-18T00:01:29;100715.00;;;10.64;100.00
32083;BME280;18597;48.328;7.932;2023-02-18T00:03:58;100719.19;;;10.55;100.00
32083;BME280;18597;48.328;7.932;2023-02-18T00:06:28;100708.72;;;10.52;100.00
32083;BME280;18597;48.328;7.932;2023-02-18T00:08:54;100713.28;;;10.50;100.00
32083;BME280;18597;48.328;7.932;2023-02-18T00:11:23;100708.38;;;10.44;100.00
32083;BME280;18597;48.328;7.932;2023-02-18T00:13:53;100707.19;;;10.48;100.00
32083;BME280;18597;48.328;7.932;2023-02-18T00:16:20;100701.03;;;10.60;100.00
32083;BME280;18597;48.328;7.932;2023-02-18T00:18:47;100685.09;;;10.59;100.00
32083;BME280;18597;48.328;7.932;2023-02-18T00:21:13;100686.03;;;10.45;100.00
32083;BME280;18597;48.328;7.932;2023-02-18T00:23:39;100689.66;;;10.44;100.00
32083;BME280;18597;48.328;7.932;2023-02-18T00:26:10;100690.41;;;10.46;100.00
32083;BME280;18597;48.328;7.932;2023-02-18T00:28:38;100687.75;;;10.46;100.00
32083;BME280;18597;48.328;7.932;2023-02-18T00:31:11;100690.19;;;10.49;100.00
32083;BME280;18597;48.328;7.932;2023-02-18T00:33:38;100683.13;;;10.48;100.00
32083;BME280;18597;48.328;7.932;2023-02-18T00:36:07;100682.00;;;10.52;100.00
32083;BME280;18597;48.328;7.932;2023-02-18T00:38:34;100677.28;;;10.43;100.00
32083;BME280;18597;48.328;7.932;2023-02-18T00:41:01;100675.78;;;10.51;100.00
32083;BME280;18597;48.328;7.932;2023-02-18T00:43:27;100667.13;;;10.48;100.00
32083;BME280;18597;48.328;7.932;2023-02-18T00:45:53;100663.06;;;10.55;100.00
32083;BME280;18597;48.328;7.932;2023-02-18T00:48:19;100662.88;;;10.58;100.00
32083;BME280;18597;48.328;7.932;2023-02-18T00:50:45;100661.56;;;10.64;100.00
32083;BME280;18597;48.328;7.932;2023-02-18T00:53:12;100672.03;;;10.54;100.00
32083;BME280;18597;48.328;7.932;2023-02-18T00:55:40;100679.94;;;10.55;100.00
32083;BME280;18597;48.328;7.932;2023-02-18T00:58:06;100666.69;;;10.54;100.00
32083;BME280;18597;48.328;7.932;2023-02-18T01:00:33;100667.13;;;10.48;100.00
32083;BME280;18597;48.328;7.932;2023-02-18T01:02:59;100657.72;;;10.55;100.00
32083;BME280;18597;48.328;7.932;2023-02-18T01:05:25;100674.28;;;10.47;100.00
32083;BME280;18597;48.328;7.932;2023-02-18T01:07:50;100674.38;;;10.46;100.00
32083;BME280;18597;48.328;7.932;2023-02-18T01:10:16;100670.19;;;10.42;100.00
32083;BME280;18597;48.328;7.932;2023-02-18T01:12:42;100660.88;;;10.35;100.00
32083;BME280;18597;48.328;7.932;2023-02-18T01:15:10;100656.31;;;10.37;100.00
32083;BME280;18597;48.328;7.932;2023-02-18T01:17:36;100648.28;;;10.49;100.00
32083;BME280;18597;48.328;7.932;2023-02-18T01:20:02;100645.31;;;10.54;100.00
32083;BME280;18597;48.328;7.932;2023-02-18T01:22:28;100648.53;;;10.59;100.00
32083;BME280;18597;48.328;7.932;2023-02-18T01:24:54;100653.88;;;10.59;100.00
32083;BME280;18597;48.328;7.932;2023-02-18T01:27:20;100649.50;;;10.58;100.00
32083;BME280;18597;48.328;7.932;2023-02-18T01:29:46;100643.19;;;10.59;100.00
32083;BME280;18597;48.328;7.932;2023-02-18T01:32:12;100628.44;;;10.66;100.00
32083;BME280;18597;48.328;7.932;2023-02-18T01:34:38;100637.72;;;10.86;100.00
32083;BME280;18597;48.328;7.932;2023-02-18T01:37:04;100631.41;;;10.87;100.00
32083;BME280;18597;48.328;7.932;2023-02-18T01:39:30;100631.94;;;11.05;100.00
32083;BME280;18597;48.328;7.932;2023-02-18T01:41:56;100625.97;;;11.25;100.00
32083;BME280;18597;48.328;7.932;2023-02-18T01:44:25;100638.16;;;11.42;100.00
32083;BME280;18597;48.328;7.932;2023-02-18T01:46:51;100640.59;;;11.45;100.00
32083;BME280;18597;48.328;7.932;2023-02-18T01:49:25;100639.28;;;11.51;100.00
32083;BME280;18597;48.328;7.932;2023-02-18T01:51:58;100638.16;;;11.42;100.00
32083;BME280;18597;48.328;7.932;2023-02-18T01:54:36;100636.94;;;11.46;100.00
32083;BME280;18597;48.328;7.932;2023-02-18T01:57:16;100632.56;;;11.45;100.00
32083;BME280;18597;48.328;7.932;2023-02-18T01:59:51;100641.13;;;11.50;100.00
32083;BME280;18597;48.328;7.932;2023-02-18T02:02:21;100633.13;;;11.61;100.00
32083;BME280;18597;48.328;7.932;2023-02-18T02:04:49;100627.63;;;11.52;100.00
32083;BME280;18597;48.328;7.932;2023-02-18T02:07:17;100620.31;;;11.54;100.00
32083;BME280;18597;48.328;7.932;2023-02-18T02:09:44;100624.25;;;11.61;100.00
32083;BME280;18597;48.328;7.932;2023-02-18T02:13:00;100620.97;;;11.57;100.00
32083;BME280;18597;48.328;7.932;2023-02-18T02:15:56;100622.44;;;11.61;100.00
32083;BME280;18597;48.328;7.932;2023-02-18T02:19:18;100618.00;;;11.49;100.00
32083;BME280;18597;48.328;7.932;2023-02-18T02:25:11;100622.94;;;11.43;100.00
32083;BME280;18597;48.328;7.932;2023-02-18T02:38:11;100617.25;;;11.47;100.00
32083;BME280;18597;48.328;7.932;2023-02-18T02:46:30;100617.88;;;11.51;100.00
32083;BME280;18597;48.328;7.932;2023-02-18T02:52:31;100586.38;;;11.54;100.00
32083;BME280;18597;48.328;7.932;2023-02-18T02:54:57;100605.31;;;11.64;100.00
32083;BME280;18597;48.328;7.932;2023-02-18T03:00:02;100586.22;;;11.68;100.00
32083;BME280;18597;48.328;7.932;2023-02-18T03:03:02;100585.13;;;11.71;100.00
32083;BME280;18597;48.328;7.932;2023-02-18T03:06:02;100588.31;;;11.76;100.00
32083;BME280;18597;48.328;7.932;2023-02-18T03:08:49;100581.00;;;11.78;100.00
32083;BME280;18597;48.328;7.932;2023-02-18T03:11:21;100581.81;;;11.80;100.00
32083;BME280;18597;48.328;7.932;2023-02-18T03:14:22;100569.56;;;11.76;100.00
32083;BME280;18597;48.328;7.932;2023-02-18T03:16:57;100561.78;;;11.73;100.00
32083;BME280;18597;48.328;7.932;2023-02-18T03:19:44;100560.06;;;11.72;100.00
32083;BME280;18597;48.328;7.932;2023-02-18T03:24:51;100572.13;;;11.78;100.00
32083;BME280;18597;48.328;7.932;2023-02-18T03:27:51;100576.88;;;11.74;100.00
32083;BME280;18597;48.328;7.932;2023-02-18T03:30:30;100575.38;;;11.70;100.00
32083;BME280;18597;48.328;7.932;2023-02-18T03:33:02;100569.63;;;11.63;100.00
32083;BME280;18597;48.328;7.932;2023-02-18T03:35:29;100568.69;;;11.64;100.00
32083;BME280;18597;48.328;7.932;2023-02-18T03:38:11;100565.50;;;11.59;100.00
32083;BME280;18597;48.328;7.932;2023-02-18T03:40:39;100562.56;;;11.62;100.00
32083;BME280;18597;48.328;7.932;2023-02-18T03:43:05;100557.22;;;11.62;100.00
32083;BME280;18597;48.328;7.932;2023-02-18T03:45:31;100561.13;;;11.70;100.00
32083;BME280;18597;48.328;7.932;2023-02-18T03:47:57;100557.03;;;11.77;100.00
32083;BME280;18597;48.328;7.932;2023-02-18T03:50:23;100551.28;;;11.70;100.00
32083;BME280;18597;48.328;7.932;2023-02-18T03:52:49;100556.31;;;11.75;100.00
32083;BME280;18597;48.328;7.932;2023-02-18T03:55:15;100546.19;;;11.67;100.00
32083;BME280;18597;48.328;7.932;2023-02-18T03:57:41;100540.09;;;11.65;100.00
32083;BME280;18597;48.328;7.932;2023-02-18T04:00:08;100541.81;;;11.66;100.00
32083;BME280;18597;48.328;7.932;2023-02-18T04:02:35;100537.34;;;11.54;100.00
32083;BME280;18597;48.328;7.932;2023-02-18T04:05:01;100544.78;;;11.50;100.00
32083;BME280;18597;48.328;7.932;2023-02-18T04:07:27;100538.09;;;11.56;100.00
32083;BME280;18597;48.328;7.932;2023-02-18T04:09:52;100538.00;;;11.57;100.00
32083;BME280;18597;48.328;7.932;2023-02-18T04:12:18;100556.81;;;11.56;100.00
32083;BME280;18597;48.328;7.932;2023-02-18T04:14:44;100544.53;;;11.53;100.00
32083;BME280;18597;48.328;7.932;2023-02-18T04:17:10;100542.56;;;11.44;100.00
32083;BME280;18597;48.328;7.932;2023-02-18T04:19:36;100548.16;;;11.41;100.00
32083;BME280;18597;48.328;7.932;2023-02-18T04:22:02;100536.47;;;11.42;100.00
32083;BME280;18597;48.328;7.932;2023-02-18T04:24:28;100534.66;;;11.43;100.00
32083;BME280;18597;48.328;7.932;2023-02-18T04:26:54;100536.31;;;11.67;100.00
32083;BME280;18597;48.328;7.932;2023-02-18T04:29:20;100537.16;;;11.57;100.00
32083;BME280;18597;48.328;7.932;2023-02-18T04:31:46;100533.78;;;11.66;100.00
32083;BME280;18597;48.328;7.932;2023-02-18T04:34:11;100528.34;;;11.55;100.00
32083;BME280;18597;48.328;7.932;2023-02-18T04:36:37;100542.28;;;11.71;100.00
32083;BME280;18597;48.328;7.932;2023-02-18T04:39:03;100535.94;;;11.61;100.00
32083;BME280;18597;48.328;7.932;2023-02-18T04:41:29;100538.03;;;11.68;100.00
32083;BME280;18597;48.328;7.932;2023-02-18T04:43:55;100536.72;;;11.74;100.00
32083;BME280;18597;48.328;7.932;2023-02-18T04:46:21;100531.25;;;11.76;100.00
32083;BME280;18597;48.328;7.932;2023-02-18T04:48:47;100537.75;;;11.84;100.00
32083;BME280;18597;48.328;7.932;2023-02-18T04:51:13;100549.97;;;11.76;100.00
32083;BME280;18597;48.328;7.932;2023-02-18T04:53:38;100540.50;;;11.72;100.00
32083;BME280;18597;48.328;7.932;2023-02-18T04:56:04;100533.03;;;11.64;100.00
32083;BME280;18597;48.328;7.932;2023-02-18T04:58:30;100543.16;;;11.72;100.00
32083;BME280;18597;48.328;7.932;2023-02-18T05:01:01;100543.03;;;11.73;100.00
32083;BME280;18597;48.328;7.932;2023-02-18T05:03:28;100534.88;;;11.75;100.00
32083;BME280;18597;48.328;7.932;2023-02-18T05:05:54;100538.09;;;11.80;100.00
32083;BME280;18597;48.328;7.932;2023-02-18T05:08:20;100551.56;;;11.78;100.00
32083;BME280;18597;48.328;7.932;2023-02-18T05:10:46;100536.28;;;11.80;100.00
32083;BME280;18597;48.328;7.932;2023-02-18T05:13:12;100545.25;;;11.79;100.00
32083;BME280;18597;48.328;7.932;2023-02-18T05:15:38;100529.41;;;11.76;100.00
32083;BME280;18597;48.328;7.932;2023-02-18T05:18:04;100538.53;;;11.74;100.00
32083;BME280;18597;48.328;7.932;2023-02-18T05:20:29;100539.28;;;11.76;100.00
32083;BME280;18597;48.328;7.932;2023-02-18T05:22:55;100537.91;;;11.70;100.00
32083;BME280;18597;48.328;7.932;2023-02-18T05:25:21;100543.53;;;11.78;100.00
32083;BME280;18597;48.328;7.932;2023-02-18T05:27:47;100533.25;;;11.85;100.00
32083;BME280;18597;48.328;7.932;2023-02-18T05:30:13;100521.69;;;11.84;100.00
32083;BME280;18597;48.328;7.932;2023-02-18T05:32:39;100536.72;;;11.74;100.00
32083;BME280;18597;48.328;7.932;2023-02-18T05:35:05;100527.59;;;11.77;100.00
32083;BME280;18597;48.328;7.932;2023-02-18T05:37:31;100521.06;;;11.81;100.00
32083;BME280;18597;48.328;7.932;2023-02-18T05:39:57;100535.00;;;11.73;100.00
32083;BME280;18597;48.328;7.932;2023-02-18T05:42:23;100529.66;;;11.73;100.00
32083;BME280;18597;48.328;7.932;2023-02-18T05:44:49;100529.38;;;11.65;100.00
32083;BME280;18597;48.328;7.932;2023-02-18T05:47:15;100527.16;;;11.59;100.00
32083;BME280;18597;48.328;7.932;2023-02-18T05:49:42;100524.03;;;11.65;100.00
32083;BME280;18597;48.328;7.932;2023-02-18T05:52:09;100524.63;;;11.57;100.00
32083;BME280;18597;48.328;7.932;2023-02-18T05:54:35;100528.53;;;11.64;100.00
32083;BME280;18597;48.328;7.932;2023-02-18T05:57:02;100520.13;;;11.58;100.00
32083;BME280;18597;48.328;7.932;2023-02-18T05:59:28;100520.50;;;11.64;100.00
32083;BME280;18597;48.328;7.932;2023-02-18T06:01:54;100519.16;;;11.70;100.00
32083;BME280;18597;48.328;7.932;2023-02-18T06:04:20;100515.75;;;11.68;100.00
32083;BME280;18597;48.328;7.932;2023-02-18T06:06:46;100515.75;;;11.68;100.00
32083;BME280;18597;48.328;7.932;2023-02-18T06:09:12;100523.94;;;11.78;100.00
32083;BME280;18597;48.328;7.932;2023-02-18T06:11:39;100523.06;;;11.66;100.00
32083;BME280;18597;48.328;7.932;2023-02-18T06:14:05;100509.91;;;11.87;100.00
32083;BME280;18597;48.328;7.932;2023-02-18T06:16:31;100516.56;;;11.81;100.00
32083;BME280;18597;48.328;7.932;2023-02-18T06:18:58;100513.03;;;11.81;100.00
32083;BME280;18597;48.328;7.932;2023-02-18T06:21:24;100515.91;;;11.78;100.00
32083;BME280;18597;48.328;7.932;2023-02-18T06:23:50;100531.47;;;11.73;100.00
32083;BME280;18597;48.328;7.932;2023-02-18T06:26:16;100522.53;;;11.85;100.00
32083;BME280;18597;48.328;7.932;2023-02-18T06:28:42;100511.00;;;11.96;100.00
32083;BME280;18597;48.328;7.932;2023-02-18T06:31:08;100522.91;;;11.91;100.00
32083;BME280;18597;48.328;7.932;2023-02-18T06:33:34;100528.00;;;11.83;100.00
32083;BME280;18597;48.328;7.932;2023-02-18T06:36:04;100519.97;;;11.83;100.00
32083;BME280;18597;48.328;7.932;2023-02-18T06:38:33;100515.34;;;11.85;100.00
32083;BME280;18597;48.328;7.932;2023-02-18T06:40:59;100515.59;;;11.82;100.00
32083;BME280;18597;48.328;7.932;2023-02-18T06:43:25;100510.97;;;11.84;100.00
32083;BME280;18597;48.328;7.932;2023-02-18T06:45:52;100515.50;;;11.95;100.00
32083;BME280;18597;48.328;7.932;2023-02-18T06:48:18;100519.03;;;11.96;100.00
32083;BME280;18597;48.328;7.932;2023-02-18T06:50:44;100514.53;;;11.96;100.00
32083;BME280;18597;48.328;7.932;2023-02-18T06:53:10;100517.44;;;11.93;100.00
32083;BME280;18597;48.328;7.932;2023-02-18T06:55:37;100521.25;;;12.02;100.00
32083;BME280;18597;48.328;7.932;2023-02-18T06:58:03;100526.56;;;11.90;100.00
32083;BME280;18597;48.328;7.932;2023-02-18T07:00:29;100521.22;;;11.90;100.00
32083;BME280;18597;48.328;7.932;2023-02-18T07:02:55;100527.41;;;11.91;100.00
32083;BME280;18597;48.328;7.932;2023-02-18T07:05:21;100522.31;;;11.88;100.00
32083;BME280;18597;48.328;7.932;2023-02-18T07:07:47;100518.84;;;12.10;100.00
32083;BME280;18597;48.328;7.932;2023-02-18T07:10:13;100522.97;;;12.14;100.00
32083;BME280;18597;48.328;7.932;2023-02-18T07:12:39;100528.94;;;12.17;100.00
32083;BME280;18597;48.328;7.932;2023-02-18T07:15:05;100527.22;;;12.16;100.00
32083;BME280;18597;48.328;7.932;2023-02-18T07:17:31;100528.81;;;12.30;100.00
32083;BME280;18597;48.328;7.932;2023-02-18T07:19:56;100522.75;;;12.28;100.00
32083;BME280;18597;48.328;7.932;2023-02-18T07:22:22;100515.56;;;12.29;100.00
32083;BME280;18597;48.328;7.932;2023-02-18T07:24:52;100523.97;;;12.35;100.00
32083;BME280;18597;48.328;7.932;2023-02-18T07:27:19;100522.03;;;12.48;100.00
32083;BME280;18597;48.328;7.932;2023-02-18T07:29:46;100522.63;;;12.52;100.00
32083;BME280;18597;48.328;7.932;2023-02-18T07:32:13;100521.66;;;12.42;100.00
32083;BME280;18597;48.328;7.932;2023-02-18T07:34:40;100524.34;;;12.42;100.00
32083;BME280;18597;48.328;7.932;2023-02-18T07:37:06;100524.22;;;12.55;100.00
32083;BME280;18597;48.328;7.932;2023-02-18T07:39:35;100515.56;;;12.62;100.00
32083;BME280;18597;48.328;7.932;2023-02-18T07:42:03;100518.75;;;12.56;100.00
32083;BME280;18597;48.328;7.932;2023-02-18T07:44:28;100518.84;;;12.66;100.00
32083;BME280;18597;48.328;7.932;2023-02-18T07:46:55;100508.47;;;12.61;100.00
32083;BME280;18597;48.328;7.932;2023-02-18T07:49:21;100518.25;;;12.62;100.00
32083;BME280;18597;48.328;7.932;2023-02-18T07:51:48;100519.56;;;12.68;100.00
32083;BME280;18597;48.328;7.932;2023-02-18T07:54:15;100519.56;;;12.68;100.00
32083;BME280;18597;48.328;7.932;2023-02-18T07:56:41;100522.03;;;12.71;100.00
32083;BME280;18597;48.328;7.932;2023-02-18T07:59:09;100518.47;;;12.82;100.00
32083;BME280;18597;48.328;7.932;2023-02-18T08:01:35;100517.72;;;12.91;100.00
32083;BME280;18597;48.328;7.932;2023-02-18T08:04:00;100526.09;;;13.09;100.00
32083;BME280;18597;48.328;7.932;2023-02-18T08:06:32;100514.00;;;13.14;100.00
32083;BME280;18597;48.328;7.932;2023-02-18T08:08:59;100523.78;;;13.15;100.00
32083;BME280;18597;48.328;7.932;2023-02-18T08:11:25;100519.63;;;13.11;100.00
32083;BME280;18597;48.328;7.932;2023-02-18T08:13:51;100529.88;;;13.17;100.00
32083;BME280;18597;48.328;7.932;2023-02-18T08:16:19;100524.38;;;13.19;100.00
32083;BME280;18597;48.328;7.932;2023-02-18T08:18:45;100530.59;;;13.30;100.00
32083;BME280;18597;48.328;7.932;2023-02-18T08:21:13;100527.78;;;13.32;100.00
32083;BME280;18597;48.328;7.932;2023-02-18T08:23:39;100531.41;;;13.42;100.00
32083;BME280;18597;48.328;7.932;2023-02-18T08:26:06;100527.22;;;13.49;100.00
32083;BME280;18597;48.328;7.932;2023-02-18T08:28:32;100531.66;;;13.71;100.00
32083;BME280;18597;48.328;7.932;2023-02-18T08:30:58;100532.97;;;13.77;100.00
32083;BME280;18597;48.328;7.932;2023-02-18T08:33:24;100530.06;;;14.10;100.00
32083;BME280;18597;48.328;7.932;2023-02-18T08:35:52;100529.69;;;14.36;100.00
32083;BME280;18597;48.328;7.932;2023-02-18T08:38:19;100528.13;;;14.43;100.00
32083;BME280;18597;48.328;7.932;2023-02-18T08:40:46;100536.34;;;14.62;100.00
32083;BME280;18597;48.328;7.932;2023-02-18T08:43:14;100527.63;;;14.80;97.22
32083;BME280;18597;48.328;7.932;2023-02-18T08:45:42;100526.22;;;14.85;97.42
32083;BME280;18597;48.328;7.932;2023-02-18T08:48:10;100532.19;;;14.89;96.62
32083;BME280;18597;48.328;7.932;2023-02-18T08:50:38;100520.84;;;14.95;95.53
32083;BME280;18597;48.328;7.932;2023-02-18T08:53:04;100521.44;;;14.89;95.46
32083;BME280;18597;48.328;7.932;2023-02-18T08:55:32;100529.63;;;14.87;97.61
32083;BME280;18597;48.328;7.932;2023-02-18T08:58:00;100529.38;;;14.90;95.43
32083;BME280;18597;48.328;7.932;2023-02-18T09:00:26;100536.13;;;14.85;96.45
32083;BME280;18597;48.328;7.932;2023-02-18T09:02:52;100533.59;;;14.83;96.93
32083;BME280;18597;48.328;7.932;2023-02-18T09:05:18;100538.81;;;14.85;96.80
32083;BME280;18597;48.328;7.932;2023-02-18T09:07:44;100528.75;;;14.77;97.30
32083;BME280;18597;48.328;7.932;2023-02-18T09:10:10;100529.91;;;14.84;96.58
32083;BME280;18597;48.328;7.932;2023-02-18T09:12:36;100537.84;;;14.95;96.45
32083;BME280;18597;48.328;7.932;2023-02-18T09:15:02;100527.91;;;14.86;95.93
32083;BME280;18597;48.328;7.932;2023-02-18T09:17:30;100522.81;;;14.74;97.63
32083;BME280;18597;48.328;7.932;2023-02-18T09:19:56;100522.81;;;14.83;95.88
32083;BME280;18597;48.328;7.932;2023-02-18T09:22:21;100523.28;;;14.98;95.61
32083;BME280;18597;48.328;7.932;2023-02-18T09:24:47;100523.97;;;14.90;96.45
32083;BME280;18597;48.328;7.932;2023-02-18T09:27:13;100518.06;;;14.96;94.74
32083;BME280;18597;48.328;7.932;2023-02-18T09:29:40;100524.66;;;14.83;95.15
32083;BME280;18597;48.328;7.932;2023-02-18T09:32:08;100524.91;;;14.80;96.48
32083;BME280;18597;48.328;7.932;2023-02-18T09:34:35;100517.06;;;14.97;96.12
32083;BME280;18597;48.328;7.932;2023-02-18T09:37:01;100516.22;;;15.07;95.99
32083;BME280;18597;48.328;7.932;2023-02-18T09:39:27;100510.00;;;15.25;93.42
32083;BME280;18597;48.328;7.932;2023-02-18T09:41:56;100511.03;;;15.44;92.68
32083;BME280;18597;48.328;7.932;2023-02-18T09:44:48;100505.66;;;15.63;91.07
32083;BME280;18597;48.328;7.932;2023-02-18T09:47:25;100488.94;;;15.89;87.54
32083;BME280;18597;48.328;7.932;2023-02-18T09:49:59;100478.47;;;16.23;84.14
32083;BME280;18597;48.328;7.932;2023-02-18T09:52:32;100474.31;;;16.38;82.02
32083;BME280;18597;48.328;7.932;2023-02-18T09:54:58;100481.38;;;16.39;80.69
32083;BME280;18597;48.328;7.932;2023-02-18T09:57:34;100476.78;;;16.22;79.11
32083;BME280;18597;48.328;7.932;2023-02-18T10:00:11;100471.59;;;15.91;79.94
32083;BME280;18597;48.328;7.932;2023-02-18T10:02:43;100475.44;;;15.79;82.46
32083;BME280;18597;48.328;7.932;2023-02-18T10:05:15;100476.19;;;15.81;81.11
32083;BME280;18597;48.328;7.932;2023-02-18T10:07:42;100473.88;;;15.96;81.19
32083;BME280;18597;48.328;7.932;2023-02-18T10:10:43;100482.63;;;16.07;80.11
32083;BME280;18597;48.328;7.932;2023-02-18T10:13:25;100481.50;;;16.10;79.93
32083;BME280;18597;48.328;7.932;2023-02-18T10:15:52;100484.59;;;16.15;79.49
32083;BME280;18597;48.328;7.932;2023-02-18T10:18:34;100490.56;;;16.19;75.69
32083;BME280;18597;48.328;7.932;2023-02-18T10:21:08;100484.72;;;16.23;77.17
32083;BME280;18597;48.328;7.932;2023-02-18T10:23:39;100484.28;;;16.28;76.05
32083;BME280;18597;48.328;7.932;2023-02-18T10:26:13;100487.25;;;16.34;74.77
32083;BME280;18597;48.328;7.932;2023-02-18T10:28:40;100487.13;;;16.26;75.21
32083;BME280;18597;48.328;7.932;2023-02-18T10:31:16;100498.19;;;16.23;74.39
32083;BME280;18597;48.328;7.932;2023-02-18T10:34:10;100496.09;;;16.07;76.09
32083;BME280;18597;48.328;7.932;2023-02-18T10:36:54;100502.06;;;16.01;77.62
32083;BME280;18597;48.328;7.932;2023-02-18T10:39:54;100506.50;;;16.02;77.92
32083;BME280;18597;48.328;7.932;2023-02-18T10:42:44;100503.97;;;15.81;78.74
32083;BME280;18597;48.328;7.932;2023-02-18T10:51:34;100513.13;;;16.08;77.19
32083;BME280;18597;48.328;7.932;2023-02-18T10:54:02;100522.59;;;16.22;78.21
32083;BME280;18597;48.328;7.932;2023-02-18T10:56:49;100516.22;;;16.32;77.48
32083;BME280;18597;48.328;7.932;2023-02-18T10:59:26;100507.50;;;16.48;77.40
32083;BME280;18597;48.328;7.932;2023-02-18T11:02:13;100505.28;;;16.71;75.40
32083;BME280;18597;48.328;7.932;2023-02-18T11:04:44;100503.63;;;16.88;73.99
32083;BME280;18597;48.328;7.932;2023-02-18T11:07:15;100504.69;;;17.05;72.41
32083;BME280;18597;48.328;7.932;2023-02-18T11:10:14;100502.88;;;17.41;70.16
32083;BME280;18597;48.328;7.932;2023-02-18T11:12:48;100491.75;;;17.62;67.07
32083;BME280;18597;48.328;7.932;2023-02-18T11:15:20;100488.41;;;17.68;65.35
32083;BME280;18597;48.328;7.932;2023-02-18T11:17:51;100482.63;;;17.81;65.52
32083;BME280;18597;48.328;7.932;2023-02-18T11:20:36;100482.66;;;18.07;65.00
32083;BME280;18597;48.328;7.932;2023-02-18T11:25:41;100478.94;;;17.46;67.15
32083;BME280;18597;48.328;7.932;2023-02-18T11:30:58;100473.28;;;17.22;71.40
32083;BME280;18597;48.328;7.932;2023-02-18T11:33:48;100464.75;;;17.26;69.61
32083;BME280;18597;48.328;7.932;2023-02-18T11:36:28;100465.25;;;17.12;71.60
32083;BME280;18597;48.328;7.932;2023-02-18T11:38:58;100467.41;;;16.90;73.44
32083;BME280;18597;48.328;7.932;2023-02-18T11:41:36;100469.19;;;17.00;72.31
32083;BME280;18597;48.328;7.932;2023-02-18T11:44:06;100459.78;;;17.04;72.41
32083;BME280;18597;48.328;7.932;2023-02-18T11:46:59;100459.38;;;16.99;72.48
32083;BME280;18597;48.328;7.932;2023-02-18T11:49:27;100455.59;;;16.91;72.60
32083;BME280;18597;48.328;7.932;2023-02-18T11:52:35;100447.97;;;16.87;72.15
32083;BME280;18597;48.328;7.932;2023-02-18T11:55:26;100433.44;;;16.70;74.62
32083;BME280;18597;48.328;7.932;2023-02-18T11:57:59;100428.16;;;16.78;72.40
32083;BME280;18597;48.328;7.932;2023-02-18T12:00:46;100420.66;;;16.72;73.36
32083;BME280;18597;48.328;7.932;2023-02-18T12:03:32;100433.44;;;16.70;74.33
32083;BME280;18597;48.328;7.932;2023-02-18T12:06:19;100418.56;;;16.84;71.53
32083;BME280;18597;48.328;7.932;2023-02-18T12:09:02;100418.88;;;16.81;72.40
32083;BME280;18597;48.328;7.932;2023-02-18T12:11:51;100422.97;;;16.57;73.28
32083;BME280;18597;48.328;7.932;2023-02-18T12:14:21;100408.84;;;16.73;72.77
32083;BME280;18597;48.328;7.932;2023-02-18T12:20:48;100398.13;;;17.35;67.79
32083;BME280;18597;48.328;7.932;2023-02-18T12:33:09;100395.25;;;17.72;66.05
32083;BME280;18597;48.328;7.932;2023-02-18T12:36:25;100388.91;;;17.63;65.25
32083;BME280;18597;48.328;7.932;2023-02-18T12:42:24;100396.41;;;18.29;62.29
32083;BME280;18597;48.328;7.932;2023-02-18T13:05:43;100382.84;;;17.87;61.28
32083;BME280;18597;48.328;7.932;2023-02-18T13:08:49;100383.00;;;18.20;59.87
32083;BME280;18597;48.328;7.932;2023-02-18T13:11:49;100376.53;;;18.47;57.76
32083;BME280;18597;48.328;7.932;2023-02-18T13:14:23;100378.25;;;18.14;58.86
32083;BME280;18597;48.328;7.932;2023-02-18T13:16:54;100364.00;;;18.46;58.41
32083;BME280;18597;48.328;7.932;2023-02-18T13:20:00;100361.56;;;18.69;57.46
32083;BME280;18597;48.328;7.932;2023-02-18T13:22:29;100366.00;;;18.86;56.50
32083;BME280;18597;48.328;7.932;2023-02-18T13:24:57;100368.34;;;18.73;56.79
32083;BME280;18597;48.328;7.932;2023-02-18T13:30:30;100357.56;;;18.39;57.33
32083;BME280;18597;48.328;7.932;2023-02-18T13:33:13;100351.41;;;18.28;56.55
32083;BME280;18597;48.328;7.932;2023-02-18T13:35:51;100340.25;;;18.23;56.90
32083;BME280;18597;48.328;7.932;2023-02-18T13:41:19;100344.47;;;18.18;56.84
32083;BME280;18597;48.328;7.932;2023-02-18T13:43:45;100328.63;;;18.31;56.63
32083;BME280;18597;48.328;7.932;2023-02-18T13:46:16;100328.47;;;18.33;56.13
32083;BME280;18597;48.328;7.932;2023-02-18T13:48:51;100327.59;;;18.24;54.88
32083;BME280;18597;48.328;7.932;2023-02-18T13:51:41;100335.16;;;18.20;55.93
32083;BME280;18597;48.328;7.932;2023-02-18T13:54:25;100336.53;;;18.16;54.96
32083;BME280;18597;48.328;7.932;2023-02-18T13:57:02;100335.44;;;18.01;54.91
32083;BME280;18597;48.328;7.932;2023-02-18T13:59:56;100337.84;;;17.78;55.40
32083;BME280;18597;48.328;7.932;2023-02-18T14:05:19;100331.94;;;17.57;55.07
32083;BME280;18597;48.328;7.932;2023-02-18T14:08:15;100320.84;;;17.68;54.85
32083;BME280;18597;48.328;7.932;2023-02-18T14:14:13;100321.34;;;17.89;55.48
32083;BME280;18597;48.328;7.932;2023-02-18T14:22:53;100312.34;;;17.55;53.53
32083;BME280;18597;48.328;7.932;2023-02-18T14:27:54;100303.59;;;17.35;53.28
32083;BME280;18597;48.328;7.932;2023-02-18T14:30:25;100294.59;;;17.26;53.08
32083;BME280;18597;48.328;7.932;2023-02-18T14:32:58;100301.22;;;17.32;53.44
32083;BME280;18597;48.328;7.932;2023-02-18T14:35:53;100299.72;;;17.11;52.45
32083;BME280;18597;48.328;7.932;2023-02-18T14:38:58;100301.53;;;17.03;52.29
32083;BME280;18597;48.328;7.932;2023-02-18T14:42:10;100300.34;;;17.05;53.13
32083;BME280;18597;48.328;7.932;2023-02-18T14:45:08;100296.41;;;17.00;51.99